West Lexington, Virginia
Current Conditions -  °F | °C
As of 8:35 AM on Thursday 23 Oct 2014 (Local Time) from KHSP Reporting Station
Overcast Overcast  
Wind Chill: -1°   Ceiling: 600
Heat Index:   Visibility: 10mi
Dew Point:   Wind: 17mph
Humidity: 93%   Direction: 320°NW
Pressure: 30.03"   Gusts: 30mph
Location:  37.7866°N, 79.5193°W
Report Text: KHSP 231235Z AUTO 32015G26KT 10SM OVC006 04/03 A3003 RMK AO2 T00400029
Loading
Personal Weather Stations






























Interactive Weather Map
Tropical Storm Tracking
New forecast layout! Learn more

10-Day Weather Forecast

Advertisements
Track Severe Weather on mobile